Time;durP1;ratioP1;P1;durP2;ratioP2;P2;SDS_P1;SDS_P2;PMS_P1;PMS_P2;Temp;Humidity;BMP_temperature;BMP_pressure;BME280_temperature;BME280_humidity;BME280_pressure;Samples;Min_cycle;Max_cycle;Signal;HPM_P1;HPM_P2
2022/05/10 00:00:34;;;;;;;3.40;2.30;;;8.90;1.40;;;10.30;100.00;95961.27;619750;226;42705;-76
2022/05/10 00:03:16;;;;;;;2.33;2.10;;;8.90;1.40;;;10.28;100.00;95959.66;648151;216;31593;-76
2022/05/10 00:05:59;;;;;;;5.40;3.20;;;8.90;1.40;;;10.24;100.00;95958.02;647436;212;31686;-75
2022/05/10 00:08:41;;;;;;;1.70;1.60;;;8.80;1.40;;;10.21;100.00;95954.92;646860;215;42277;-74
2022/05/10 00:11:26;;;;;;;5.23;2.30;;;8.80;1.40;;;10.18;100.00;95955.83;646586;216;31574;-74
2022/05/10 00:14:09;;;;;;;3.90;1.90;;;8.70;1.40;;;10.02;100.00;95951.98;620260;226;31919;-77
2022/05/10 00:16:57;;;;;;;4.23;3.37;;;8.70;1.40;;;10.07;100.00;95950.22;647268;216;31661;-75
2022/05/10 00:19:45;;;;;;;2.23;2.03;;;8.80;1.40;;;10.13;100.00;95946.23;648080;212;42378;-76
2022/05/10 00:22:33;;;;;;;2.30;2.10;;;8.90;1.40;;;10.10;100.00;95946.17;647387;212;31600;-74
2022/05/10 00:27:49;;;;;;;4.50;2.80;;;9.00;1.40;;;10.16;100.00;95934.27;647050;212;31532;-74
2022/05/10 00:30:30;;;;;;;2.53;2.33;;;8.90;1.40;;;10.13;100.00;95937.84;647017;216;31547;-73
2022/05/10 00:35:54;;;;;;;2.60;2.40;;;8.60;1.40;;;10.00;100.00;95928.11;648417;212;31609;-74
2022/05/10 00:38:38;;;;;;;3.27;1.87;;;8.70;1.40;;;9.96;100.00;95918.99;646943;216;31638;-78
2022/05/10 00:44:21;;;;;;;3.03;1.73;;;8.60;1.40;;;9.90;100.00;95921.03;645899;216;31588;-74
2022/05/10 00:47:26;;;;;;;2.07;1.87;;;8.30;1.40;;;9.83;100.00;95922.10;646058;216;31649;-74
2022/05/10 00:50:17;;;;;;;1.75;1.42;;;8.30;1.40;;;9.80;100.00;95920.45;647111;216;31550;-74
2022/05/10 00:53:04;;;;;;;2.53;2.33;;;8.20;1.40;;;9.66;100.00;95920.58;647378;216;31888;-75
2022/05/10 00:55:51;;;;;;;3.03;2.72;;;8.10;1.40;;;9.57;100.00;95923.44;645973;216;31622;-74
2022/05/10 00:58:39;;;;;;;2.80;1.57;;;8.10;1.40;;;9.47;100.00;95921.02;645991;216;31584;-74
2022/05/10 01:01:20;;;;;;;2.67;2.43;;;8.00;1.40;;;9.37;100.00;95915.48;646281;216;31537;-74
2022/05/10 01:04:25;;;;;;;1.90;1.70;;;8.00;1.40;;;9.32;100.00;95916.34;647014;216;31525;-74
2022/05/10 01:07:12;;;;;;;2.80;2.00;;;8.00;1.40;;;9.39;100.00;95909.95;647724;216;31488;-73
2022/05/10 01:09:59;;;;;;;3.90;1.70;;;8.10;1.40;;;9.51;100.00;95904.83;647090;212;32151;-74
2022/05/10 01:12:42;;;;;;;2.90;2.70;;;8.40;1.40;;;9.71;100.00;95907.13;645346;216;31644;-74
2022/05/10 01:15:24;;;;;;;2.60;2.20;;;8.70;1.40;;;9.85;100.00;95904.37;646455;216;31545;-74
2022/05/10 01:18:05;;;;;;;1.90;1.60;;;8.70;1.40;;;9.84;100.00;95908.70;647007;216;31549;-74
2022/05/10 01:20:49;;;;;;;3.30;2.67;;;8.70;1.40;;;9.73;100.00;95906.39;647972;216;42192;-75
2022/05/10 01:23:55;;;;;;;3.30;2.55;;;8.50;1.40;;;9.83;100.00;95900.00;646032;212;31568;-74
2022/05/10 01:27:14;;;;;;;3.13;2.83;;;8.70;1.40;;;9.86;100.00;95896.85;646530;212;31817;-75
2022/05/10 01:30:18;;;;;;;3.97;2.87;;;8.60;1.40;;;9.75;100.00;95897.98;646754;216;31538;-75
2022/05/10 01:36:20;;;;;;;2.12;1.92;;;8.30;1.40;;;9.58;100.00;95898.42;646703;216;31569;-74
2022/05/10 01:39:08;;;;;;;3.30;2.70;;;8.20;1.40;;;9.51;100.00;95890.80;619889;226;31939;-76
2022/05/10 01:42:23;;;;;;;2.43;1.83;;;8.20;1.40;;;9.44;100.00;95890.36;646928;216;31965;-74
2022/05/10 01:45:05;;;;;;;3.83;2.10;;;8.20;1.40;;;9.51;100.00;95889.17;646152;212;31557;-74
2022/05/10 01:47:49;;;;;;;1.77;1.63;;;8.20;1.40;;;9.46;100.00;95890.78;646287;212;31566;-74
2022/05/10 01:50:36;;;;;;;2.90;1.90;;;8.20;1.40;;;9.47;100.00;95891.52;618639;222;31919;-74
2022/05/10 01:53:29;;;;;;;2.63;2.23;;;8.20;1.40;;;9.47;100.00;95891.84;647480;212;31489;-78
2022/05/10 01:56:14;;;;;;;2.90;1.60;;;8.10;1.40;;;9.43;100.00;95891.83;647131;216;31600;-74
2022/05/10 01:58:57;;;;;;;2.53;2.00;;;8.00;1.40;;;9.37;100.00;95896.27;620124;222;31928;-78
2022/05/10 02:01:41;;;;;;;2.60;1.50;;;8.00;1.40;;;9.27;100.00;95894.56;646160;216;31739;-75
2022/05/10 02:04:29;;;;;;;2.80;2.30;;;7.90;1.40;;;9.23;100.00;95903.20;646669;216;31546;-75
2022/05/10 02:07:14;;;;;;;2.90;1.40;;;7.80;1.40;;;9.17;100.00;95901.74;647789;212;32121;-77
2022/05/10 02:10:13;;;;;;;2.23;1.80;;;7.70;1.40;;;9.16;100.00;95912.78;635056;216;31718;-74
2022/05/10 02:12:57;;;;;;;1.70;1.53;;;7.70;1.40;;;9.20;100.00;95919.41;646619;216;31636;-74
2022/05/10 02:15:45;;;;;;;1.97;1.53;;;7.70;1.40;;;9.33;100.00;95914.77;645024;216;31686;-74
2022/05/10 02:18:31;;;;;;;2.43;2.00;;;7.80;1.40;;;9.37;100.00;95914.67;646648;216;31647;-74
2022/05/10 02:21:15;;;;;;;3.95;1.70;;;7.70;1.40;;;9.13;100.00;95910.27;646188;212;31572;-74
2022/05/10 02:24:13;;;;;;;2.60;2.40;;;7.60;1.40;;;8.96;100.00;95917.73;646713;216;31946;-74
2022/05/10 02:26:59;;;;;;;2.90;1.98;;;7.40;1.40;;;9.01;100.00;95918.13;646453;216;31610;-74
2022/05/10 02:29:44;;;;;;;4.10;2.10;;;7.60;1.40;;;9.14;100.00;95913.94;619321;226;31874;-75
2022/05/10 02:36:52;;;;;;;1.90;1.45;;;7.40;1.40;;;8.78;100.00;95910.17;646518;212;31611;-74
2022/05/10 02:39:34;;;;;;;2.40;1.67;;;7.40;1.40;;;8.64;100.00;95910.94;646800;216;31533;-75
2022/05/10 02:42:16;;;;;;;1.60;1.30;;;7.20;1.40;;;8.62;100.00;95908.42;646455;212;31559;-74
2022/05/10 02:44:59;;;;;;;1.40;1.30;;;7.10;1.40;;;8.57;100.00;95914.40;618739;225;32076;-75
2022/05/10 02:47:41;;;;;;;1.73;1.10;;;7.00;1.40;;;8.54;100.00;95911.41;647354;212;31559;-75
2022/05/10 02:50:25;;;;;;;1.30;1.20;;;7.10;1.40;;;8.57;100.00;95917.58;646931;216;31545;-74
2022/05/10 02:53:07;;;;;;;1.70;1.30;;;7.10;1.40;;;8.69;100.00;95920.20;647453;216;31639;-74
2022/05/10 02:58:49;;;;;;;2.20;1.62;;;7.30;1.40;;;8.64;100.00;95917.91;646388;212;31585;-74
2022/05/10 03:04:17;;;;;;;3.80;1.50;;;7.30;1.40;;;8.48;100.00;95915.61;645737;216;31567;-74
2022/05/10 03:09:42;;;;;;;2.03;1.90;;;7.10;1.40;;;8.30;100.00;95913.88;647883;216;31601;-76
2022/05/10 03:12:24;;;;;;;2.00;1.47;;;7.00;1.40;;;8.34;100.00;95911.52;646575;212;31576;-76
2022/05/10 03:15:12;;;;;;;2.60;1.60;;;7.00;1.40;;;8.33;100.00;95911.70;646715;216;31546;-74
2022/05/10 03:17:53;;;;;;;2.53;1.40;;;7.00;1.40;;;8.37;100.00;95918.17;645907;216;31665;-74
2022/05/10 03:20:44;;;;;;;1.80;1.23;;;7.10;1.40;;;8.31;100.00;95914.73;648810;213;31544;-75
2022/05/10 03:23:32;;;;;;;2.10;1.80;;;6.90;1.40;;;8.31;100.00;95917.11;647222;216;31595;-74
2022/05/10 03:26:22;;;;;;;2.50;2.10;;;7.00;1.40;;;8.30;100.00;95917.02;618604;222;31900;-78
2022/05/10 03:29:06;;;;;;;3.08;1.92;;;7.00;1.40;;;8.25;100.00;95918.77;646595;216;31608;-75
2022/05/10 03:35:57;;;;;;;1.75;1.58;;;6.80;1.40;;;8.12;100.00;95915.62;645893;216;31612;-75
2022/05/10 03:38:45;;;;;;;1.90;1.10;;;6.80;1.40;;;8.17;100.00;95920.23;645482;216;31523;-74
2022/05/10 03:41:32;;;;;;;2.23;1.53;;;6.90;1.40;;;8.21;100.00;95918.79;648072;216;31586;-77
2022/05/10 03:44:14;;;;;;;2.00;1.80;;;7.00;1.40;;;8.42;100.00;95913.66;647987;216;32635;-75
2022/05/10 03:46:56;;;;;;;4.07;2.03;;;7.30;1.40;;;8.73;100.00;95911.31;645661;216;31664;-77
2022/05/10 03:49:45;;;;;;;2.10;1.40;;;7.80;1.40;;;9.01;100.00;95914.89;646239;216;31567;-74
2022/05/10 03:52:31;;;;;;;3.03;1.60;;;8.00;1.40;;;9.09;100.00;95912.49;647391;216;31595;-76
2022/05/10 03:55:20;;;;;;;2.60;2.20;;;8.00;1.40;;;9.10;100.00;95914.42;642415;217;31537;-74
2022/05/10 03:58:03;;;;;;;3.20;2.90;;;7.90;1.40;;;9.14;100.00;95909.39;647484;212;31709;-74
2022/05/10 04:00:51;;;;;;;2.83;1.80;;;7.90;1.40;;;9.09;100.00;95911.25;646138;212;31721;-76
2022/05/10 04:03:36;;;;;;;13.40;3.00;;;7.90;1.40;;;9.25;100.00;95902.80;646779;212;32176;-75
2022/05/10 04:06:19;;;;;;;1.70;1.60;;;8.20;1.40;;;9.30;100.00;95899.84;645286;212;32497;-74
2022/05/10 04:09:01;;;;;;;2.60;2.40;;;8.20;1.40;;;9.26;100.00;95901.71;639941;216;31925;-74
2022/05/10 04:11:43;;;;;;;1.93;1.60;;;8.10;1.40;;;9.32;100.00;95898.11;646971;216;31926;-74
2022/05/10 04:14:30;;;;;;;2.37;2.17;;;8.10;1.40;;;9.35;100.00;95902.78;647490;216;31665;-75
2022/05/10 04:19:52;;;;;;;3.58;2.22;;;8.30;1.40;;;9.46;100.00;95894.89;645808;212;32172;-75
2022/05/10 04:22:34;;;;;;;2.15;1.83;;;8.30;1.40;;;9.45;100.00;95893.32;645746;216;32034;-74
2022/05/10 04:25:18;;;;;;;2.03;1.93;;;8.30;1.40;;;9.51;100.00;95895.63;646325;216;32033;-74
2022/05/10 04:30:35;;;;;;;3.28;1.80;;;8.40;1.40;;;9.56;100.00;95901.03;645964;212;32223;-74
2022/05/10 04:35:54;;;;;;;2.05;1.85;;;8.40;1.40;;;9.56;100.00;95899.20;618701;226;31919;-74
2022/05/10 04:38:36;;;;;;;2.13;1.93;;;8.50;1.40;;;9.56;100.00;95900.59;619978;226;31959;-74
2022/05/10 04:41:25;;;;;;;3.60;2.27;;;8.50;1.40;;;9.62;100.00;95901.89;646493;212;32122;-74
2022/05/10 04:44:07;;;;;;;2.40;2.15;;;8.60;1.40;;;9.72;100.00;95899.80;647441;216;31560;-74
2022/05/10 04:46:52;;;;;;;3.70;2.42;;;8.60;1.40;;;9.90;100.00;95899.58;645902;216;31774;-74
2022/05/10 04:49:33;;;;;;;2.95;2.10;;;8.80;1.40;;;10.05;100.00;95899.05;646815;216;31532;-75
2022/05/10 04:52:15;;;;;;;2.30;1.30;;;9.10;1.40;;;10.24;100.00;95902.32;646350;216;32144;-74
2022/05/10 04:54:57;;;;;;;3.20;1.40;;;9.30;1.40;;;10.36;100.00;95902.22;647128;216;32155;-74
2022/05/10 04:57:39;;;;;;;1.13;1.00;;;9.40;1.40;;;10.41;100.00;95901.78;652368;212;25655;-74
2022/05/10 05:00:21;;;;;;;3.13;2.07;;;9.40;1.40;;;10.47;100.00;95907.08;647312;212;31865;-73
2022/05/10 05:03:05;;;;;;;1.73;1.47;;;9.50;1.40;;;10.57;100.00;95911.49;620137;226;31879;-75
2022/05/10 05:05:47;;;;;;;2.87;1.67;;;9.50;1.40;;;10.67;100.00;95910.34;647639;216;31525;-73
2022/05/10 05:08:29;;;;;;;1.75;1.23;;;9.60;1.40;;;10.77;100.00;95913.23;641175;216;32649;-74
2022/05/10 05:11:11;;;;;;;1.87;1.73;;;9.70;1.40;;;10.83;100.00;95913.43;647088;216;42202;-74
2022/05/10 05:13:52;;;;;;;2.20;1.53;;;9.60;1.40;;;10.93;100.00;95913.16;647269;216;31587;-74
2022/05/10 05:16:34;;;;;;;2.23;1.50;;;9.70;1.40;;;11.04;100.00;95912.70;646172;216;31760;-73
2022/05/10 05:19:16;;;;;;;1.70;1.60;;;9.90;1.40;;;11.16;100.00;95916.94;647253;212;42175;-74
2022/05/10 05:21:58;;;;;;;2.00;1.40;;;10.00;1.40;;;11.32;100.00;95918.72;647162;216;42148;-74
2022/05/10 05:24:39;;;;;;;3.23;1.60;;;10.20;1.40;;;11.46;100.00;95919.81;619061;226;42480;-73
2022/05/10 05:27:21;;;;;;;5.70;2.23;;;10.40;1.40;;;11.60;100.00;95924.47;645266;216;42199;-74
2022/05/10 05:30:03;;;;;;;1.50;1.40;;;10.60;1.40;;;11.74;100.00;95922.23;646064;212;42180;-75
2022/05/10 05:32:44;;;;;;;3.10;1.80;;;10.70;1.40;;;11.90;100.00;95922.86;647397;216;31582;-74
2022/05/10 05:38:26;;;;;;;2.20;2.00;;;11.10;1.40;;;12.28;100.00;95922.69;618541;226;31923;-74
2022/05/10 05:41:06;;;;;;;3.07;2.20;;;11.30;1.40;;;12.39;100.00;95923.33;647240;216;31608;-74
2022/05/10 05:43:48;;;;;;;1.98;1.67;;;11.40;1.40;;;12.43;100.00;95926.39;645773;216;31612;-74
2022/05/10 05:46:30;;;;;;;4.20;1.60;;;11.50;1.40;;;12.61;100.00;95932.52;646593;216;31572;-73
2022/05/10 05:49:19;;;;;;;3.10;1.92;;;11.60;1.40;;;12.75;100.00;95935.88;618494;226;31923;-74
2022/05/10 05:52:01;;;;;;;1.92;1.80;;;11.80;1.40;;;12.89;100.00;95931.17;646620;216;32089;-74
2022/05/10 05:57:10;;;;;;;1.62;1.52;;;12.00;1.40;;;13.10;100.00;95931.65;646670;216;31532;-75
2022/05/10 05:59:54;;;;;;;2.40;2.20;;;12.10;1.40;;;13.28;100.00;95930.17;646671;215;31586;-74
2022/05/10 06:02:36;;;;;;;3.60;1.90;;;12.20;1.40;;;13.44;100.00;95927.62;647882;212;43109;-74
2022/05/10 06:05:17;;;;;;;2.67;1.98;;;12.30;1.40;;;13.54;100.00;95928.30;647021;216;39852;-74
2022/05/10 06:08:00;;;;;;;2.70;2.03;;;12.40;1.40;;;13.57;100.00;95933.63;645695;212;32160;-74
2022/05/10 06:10:41;;;;;;;2.90;1.98;;;12.50;1.40;;;13.72;100.00;95936.30;646490;216;33793;-74
2022/05/10 06:13:24;;;;;;;2.12;1.62;;;12.60;1.40;;;13.78;100.00;95939.38;647590;216;31737;-75
2022/05/10 06:16:06;;;;;;;2.60;2.40;;;12.70;1.40;;;13.95;100.00;95942.12;645909;216;31813;-74
2022/05/10 06:18:50;;;;;;;2.00;1.77;;;13.00;1.40;;;14.10;100.00;95939.76;647576;216;42210;-74
2022/05/10 06:21:32;;;;;;;1.20;1.10;;;13.00;1.40;;;14.24;100.00;95945.99;646298;216;42383;-74
2022/05/10 06:24:14;;;;;;;2.08;1.75;;;13.10;1.40;;;14.38;100.00;95946.59;645948;216;31587;-74
2022/05/10 06:26:55;;;;;;;2.97;2.10;;;13.10;1.40;;;14.47;100.00;95945.12;645856;216;31553;-75
2022/05/10 06:29:39;;;;;;;2.45;2.12;;;13.30;1.40;;;14.60;100.00;95949.47;646632;215;31618;-75
2022/05/10 06:32:22;;;;;;;2.85;1.80;;;13.50;1.40;;;14.80;100.00;95946.33;646915;212;31551;-74
2022/05/10 06:35:53;;;;;;;2.20;2.00;;;13.80;1.40;;;15.00;100.00;95949.56;647774;213;31762;-74
2022/05/10 06:38:34;;;;;;;2.73;1.83;;;13.90;1.40;;;15.08;100.00;95947.36;646943;212;31707;-74
2022/05/10 06:41:14;;;;;;;3.25;1.80;;;14.00;1.40;;;15.12;100.00;95950.20;645699;216;31520;-74
2022/05/10 06:43:56;;;;;;;3.72;2.30;;;14.00;1.40;;;15.22;100.00;95954.59;646869;216;31544;-73
2022/05/10 06:46:38;;;;;;;2.30;1.80;;;14.20;1.40;;;15.37;100.00;95950.52;647282;216;31540;-73
2022/05/10 06:49:20;;;;;;;2.90;1.90;;;14.20;1.40;;;15.55;100.00;95953.18;646523;216;31525;-74
2022/05/10 06:52:01;;;;;;;3.53;1.90;;;14.40;1.40;;;15.62;100.00;95950.10;647960;212;31534;-74
2022/05/10 06:54:43;;;;;;;2.25;1.45;;;14.40;1.40;;;15.75;100.00;95950.36;647115;216;31519;-75
2022/05/10 06:57:25;;;;;;;2.70;2.12;;;14.60;1.40;;;15.90;100.00;95952.45;646290;212;31886;-74
2022/05/10 07:00:07;;;;;;;2.10;1.90;;;14.70;1.40;;;15.97;100.00;95948.32;646756;216;31661;-75
2022/05/10 07:02:49;;;;;;;4.43;2.00;;;14.80;1.40;;;16.00;100.00;95948.03;647178;216;32109;-74
2022/05/10 07:05:31;;;;;;;2.67;2.20;;;14.80;1.40;;;16.13;100.00;95949.22;646358;216;31703;-74
2022/05/10 07:08:13;;;;;;;2.30;1.90;;;14.90;1.40;;;16.28;100.00;95945.94;645841;212;42199;-74
2022/05/10 07:10:54;;;;;;;2.80;1.95;;;15.10;1.40;;;16.51;100.00;95937.45;647959;216;31628;-74
2022/05/10 07:13:36;;;;;;;2.00;1.80;;;15.30;1.40;;;16.59;100.00;95936.88;646173;216;31708;-75
2022/05/10 07:16:17;;;;;;;1.70;1.60;;;15.40;1.40;;;16.69;100.00;95938.09;645747;216;31575;-74
2022/05/10 07:18:59;;;;;;;1.85;1.73;;;15.50;1.40;;;16.73;100.00;95940.57;647108;216;31535;-75
2022/05/10 07:21:41;;;;;;;2.20;2.00;;;15.50;1.40;;;16.71;100.00;95932.95;646998;212;31526;-74
2022/05/10 07:24:23;;;;;;;2.35;2.00;;;15.50;1.40;;;16.74;100.00;95934.41;647081;212;31542;-74
2022/05/10 07:27:05;;;;;;;2.00;1.55;;;15.50;1.40;;;16.96;100.00;95930.91;645311;216;31550;-74
2022/05/10 07:29:46;;;;;;;5.55;1.70;;;15.80;1.40;;;17.07;100.00;95933.47;645656;216;31831;-74
2022/05/10 07:32:29;;;;;;;2.17;1.95;;;15.80;1.40;;;17.14;100.00;95935.55;645707;216;31558;-73
2022/05/10 07:38:29;;;;;;;3.00;1.80;;;16.20;1.40;;;17.57;100.00;95935.78;646548;212;31535;-74
2022/05/10 07:41:11;;;;;;;2.33;1.60;;;16.30;1.40;;;17.73;100.00;95930.11;646539;216;31543;-74
2022/05/10 07:43:56;;;;;;;2.20;2.00;;;16.40;1.40;;;17.75;100.00;95930.42;645931;216;31574;-74
2022/05/10 07:46:37;;;;;;;2.40;1.90;;;16.30;1.40;;;17.73;100.00;95934.62;646101;215;31825;-74
2022/05/10 07:49:19;;;;;;;2.10;1.50;;;16.40;1.40;;;17.80;100.00;95927.02;646044;216;31595;-74
2022/05/10 07:52:08;;;;;;;2.50;1.77;;;16.40;1.40;;;17.84;100.00;95929.95;601323;233;32241;-75
2022/05/10 07:54:50;;;;;;;1.75;1.42;;;16.60;1.40;;;18.28;100.00;95926.45;646343;212;32831;-74
2022/05/10 07:57:32;;;;;;;2.40;1.80;;;17.10;1.40;;;18.30;100.00;95923.44;618040;223;31932;-74
2022/05/10 08:00:15;;;;;;;3.15;2.10;;;17.00;1.40;;;18.61;100.00;95921.33;618674;222;32041;-74
2022/05/10 08:02:56;;;;;;;2.20;2.00;;;17.20;1.40;;;18.69;100.00;95920.44;646405;216;31705;-74
2022/05/10 08:05:39;;;;;;;3.15;2.28;;;17.10;1.40;;;18.35;100.00;95916.23;646241;212;32027;-75
2022/05/10 08:08:21;;;;;;;2.15;1.62;;;16.90;1.40;;;18.63;100.00;95913.34;643037;216;31784;-74
2022/05/10 08:11:02;;;;;;;2.58;2.15;;;17.10;1.40;;;18.62;100.00;95911.08;645805;212;32114;-74
2022/05/10 08:13:44;;;;;;;2.00;1.60;;;17.20;1.40;;;18.71;100.00;95915.22;646815;212;34309;-74
2022/05/10 08:16:31;;;;;;;2.97;2.12;;;17.50;1.40;;;18.88;100.00;95913.22;648194;216;31558;-75
2022/05/10 08:19:11;;;;;;;1.92;1.33;;;17.60;1.40;;;19.03;100.00;95915.66;646628;213;31561;-74
2022/05/10 08:21:56;;;;;;;2.75;2.20;;;17.90;1.40;;;19.17;100.00;95915.45;646995;216;42785;-74
2022/05/10 08:24:34;;;;;;;2.25;2.05;;;17.90;1.40;;;19.04;100.00;95912.38;647705;216;31610;-74
2022/05/10 08:27:16;;;;;;;1.80;1.70;;;17.80;1.40;;;19.35;100.00;95913.14;645967;216;31893;-76
2022/05/10 08:29:57;;;;;;;2.22;1.85;;;18.00;1.40;;;19.21;100.00;95920.09;645403;216;31751;-74
2022/05/10 08:32:39;;;;;;;2.33;1.80;;;18.10;1.40;;;19.51;100.00;95917.67;646118;216;31577;-75
2022/05/10 08:35:51;;;;;;;3.33;2.00;;;18.30;1.40;;;19.46;100.00;95918.56;646851;212;31614;-75
2022/05/10 08:38:32;;;;;;;2.10;1.80;;;18.50;1.40;;;19.94;100.00;95914.56;646909;212;31570;-75
2022/05/10 08:41:31;;;;;;;2.20;2.10;;;18.70;1.40;;;20.32;100.00;95909.17;619052;223;42559;-75
2022/05/10 08:44:14;;;;;;;2.12;1.92;;;19.00;1.40;;;20.31;100.00;95907.97;647436;216;42192;-74
2022/05/10 08:46:56;;;;;;;2.17;2.03;;;18.90;1.40;;;20.65;100.00;95907.53;645291;216;31553;-75
2022/05/10 08:49:45;;;;;;;2.40;2.20;;;19.30;1.40;;;20.73;100.00;95903.86;647444;213;42752;-75
2022/05/10 08:52:30;;;;;;;3.00;2.33;;;19.40;1.40;;;20.95;97.04;95903.87;646634;216;31709;-75
2022/05/10 08:55:10;;;;;;;2.55;2.35;;;19.70;1.40;;;21.46;100.00;95905.35;647091;216;31579;-76
2022/05/10 08:58:01;;;;;;;1.73;1.62;;;20.10;1.40;;;21.46;93.68;95900.64;619612;226;32029;-75
2022/05/10 09:00:45;;;;;;;2.78;2.35;;;19.80;1.40;;;22.01;97.96;95895.55;645668;216;31587;-75
2022/05/10 09:03:38;;;;;;;2.10;2.00;;;20.40;1.40;;;22.03;92.72;95896.45;645886;216;33534;-75
2022/05/10 09:06:28;;;;;;;6.60;2.47;;;21.00;1.40;;;22.35;86.77;95894.43;647031;216;31556;-75
2022/05/10 09:09:16;;;;;;;2.80;2.50;;;21.30;1.40;;;22.80;85.83;95893.42;638962;212;31827;-75
2022/05/10 09:12:14;;;;;;;2.33;2.12;;;21.60;1.40;;;23.77;80.93;95894.66;646881;216;31646;-75
2022/05/10 09:15:00;;;;;;;2.87;2.33;;;23.50;1.40;;;25.45;73.21;95890.44;645643;216;31966;-75
2022/05/10 09:17:42;;;;;;;4.25;2.60;;;27.20;1.40;;;27.21;66.64;95889.80;644640;212;31565;-74
2022/05/10 09:20:24;;;;;;;2.10;1.83;;;28.60;1.40;;;27.66;58.43;95888.27;646654;216;31885;-76
2022/05/10 09:23:11;;;;;;;2.85;2.40;;;28.80;1.40;;;29.46;57.14;95890.73;646400;212;31584;-76
2022/05/10 09:25:52;;;;;;;2.60;2.40;;;29.80;1.40;;;29.71;54.32;95893.34;646738;216;31750;-74
2022/05/10 09:28:39;;;;;;;2.50;2.30;;;28.90;1.40;;;29.87;46.47;95886.20;618638;226;31885;-75
2022/05/10 09:35:52;;;;;;;3.00;2.70;;;29.60;1.40;;;32.84;53.30;95882.18;618533;226;31969;-76
2022/05/10 09:38:34;;;;;;;3.87;2.42;;;30.40;1.40;;;32.86;42.80;95879.78;619148;226;31896;-76
2022/05/10 09:41:26;;;;;;;2.00;1.90;;;30.40;1.40;;;32.47;48.37;95878.81;646814;216;31573;-74
2022/05/10 09:46:42;;;;;;;3.50;2.62;;;31.50;1.40;;;33.99;43.34;95877.01;646808;216;31582;-75
2022/05/10 09:49:30;;;;;;;2.80;2.60;;;31.20;1.40;;;33.03;46.24;95881.59;645182;212;31738;-74
2022/05/10 09:52:17;;;;;;;2.62;2.42;;;30.90;1.40;;;34.24;46.02;95873.93;646172;212;31619;-74
2022/05/10 09:57:33;;;;;;;2.90;2.70;;;29.80;1.40;;;33.70;40.48;95872.31;647206;216;31792;-73
2022/05/10 10:00:15;;;;;;;4.12;2.15;;;30.10;1.40;;;34.14;36.60;95874.02;646575;216;31613;-74
2022/05/10 10:05:31;;;;;;;2.70;2.50;;;31.80;1.40;;;36.26;35.01;95858.88;645880;216;31621;-75
2022/05/10 10:08:13;;;;;;;2.90;2.45;;;31.10;1.40;;;33.21;35.04;95872.17;643929;216;32267;-74
2022/05/10 10:10:55;;;;;;;2.50;2.20;;;30.20;1.40;;;33.71;40.85;95861.37;619903;222;31991;-74
2022/05/10 10:13:37;;;;;;;3.47;2.80;;;30.90;1.40;;;35.10;35.14;95855.93;647074;215;31609;-73
2022/05/10 10:16:48;;;;;;;12.45;8.23;;;31.20;1.40;;;34.94;37.65;95850.26;647879;216;31650;-74
2022/05/10 10:19:41;;;;;;;2.55;2.35;;;31.60;1.40;;;35.75;33.06;95854.69;645528;216;31611;-75
2022/05/10 10:22:22;;;;;;;2.10;1.90;;;31.10;1.40;;;36.05;31.98;95848.02;619038;222;32188;-73
2022/05/10 10:25:09;;;;;;;2.65;2.37;;;31.00;1.40;;;35.50;33.42;95849.16;647166;216;31769;-74
2022/05/10 10:27:51;;;;;;;6.30;3.10;;;30.60;1.40;;;34.94;34.29;95849.07;645930;215;31803;-73
2022/05/10 10:30:36;;;;;;;3.97;2.70;;;31.30;1.40;;;35.09;33.54;95847.36;647785;216;31961;-73
2022/05/10 10:36:04;;;;;;;2.10;1.90;;;32.40;1.40;;;36.12;30.80;95838.47;645338;216;31690;-73
2022/05/10 10:39:03;;;;;;;2.37;2.17;;;31.30;1.40;;;35.23;30.82;95838.95;646046;216;31549;-74
2022/05/10 10:42:14;;;;;;;2.87;2.58;;;30.50;1.40;;;37.40;31.68;95833.00;647047;216;31588;-74
2022/05/10 10:44:56;;;;;;;1.80;1.70;;;31.80;1.40;;;36.86;29.43;95829.60;646742;216;31570;-73
2022/05/10 10:47:58;;;;;;;2.67;1.98;;;30.80;1.40;;;36.90;29.01;95824.48;646548;216;31807;-74
2022/05/10 10:50:42;;;;;;;1.90;1.70;;;31.30;1.40;;;36.73;29.79;95824.30;644721;212;31639;-75
2022/05/10 10:53:25;;;;;;;1.70;1.60;;;31.30;1.40;;;36.82;29.04;95827.50;646933;216;32218;-74
2022/05/10 10:56:17;;;;;;;8.27;2.35;;;30.70;1.40;;;37.08;29.00;95820.88;646841;216;31569;-75
2022/05/10 10:59:07;;;;;;;10.00;3.95;;;31.70;1.40;;;38.02;28.01;95821.63;618907;226;32456;-75
2022/05/10 11:02:19;;;;;;;15.80;4.20;;;31.60;1.40;;;38.21;26.65;95817.81;619838;226;31937;-74
2022/05/10 11:05:34;;;;;;;2.37;2.17;;;30.90;1.40;;;35.59;29.23;95821.53;646670;216;31550;-75
2022/05/10 11:09:07;;;;;;;2.70;1.70;;;30.50;1.40;;;35.62;28.65;95824.73;643941;216;31735;-75
2022/05/10 11:11:56;;;;;;;2.60;2.08;;;30.10;1.40;;;34.74;28.30;95816.94;646448;216;31920;-74
2022/05/10 11:15:08;;;;;;;2.10;1.98;;;29.60;1.40;;;30.74;31.87;95819.45;620434;226;31860;-73
2022/05/10 11:18:03;;;;;;;2.33;2.12;;;26.40;1.40;;;34.38;31.09;95808.47;646013;216;31660;-75
2022/05/10 11:23:34;;;;;;;7.00;2.30;;;30.90;1.40;;;36.01;30.08;95800.69;646585;216;31655;-76
2022/05/10 11:29:05;;;;;;;1.77;1.67;;;31.50;1.40;;;37.99;28.52;95800.04;646477;212;31682;-76
2022/05/10 11:32:15;;;;;;;2.40;2.20;;;30.80;1.40;;;39.23;26.68;95787.86;648432;216;31576;-83
2022/05/10 11:36:03;;;;;;;2.30;2.20;;;31.80;1.40;;;38.62;27.82;95785.89;647132;216;31628;-75
2022/05/10 11:39:41;;;;;;;2.28;2.08;;;31.90;1.40;;;37.11;27.49;95788.42;645112;212;31940;-75
2022/05/10 11:42:32;;;;;;;2.07;1.90;;;31.30;1.40;;;39.52;27.00;95777.08;646724;216;31580;-75
2022/05/10 11:47:50;;;;;;;1.80;1.70;;;31.20;1.40;;;39.15;26.41;95774.55;647818;216;31540;-74
2022/05/10 11:51:38;;;;;;;2.20;2.00;;;31.50;1.40;;;40.45;25.21;95765.77;645584;216;31654;-73
2022/05/10 11:53:41;;;;;;;1.80;1.70;;;31.80;1.40;;;40.27;26.08;95765.36;646541;212;32136;-73
2022/05/10 11:56:21;;;;;;;2.10;1.90;;;31.40;1.40;;;39.81;25.85;95765.22;646243;212;31747;-75
2022/05/10 11:59:04;;;;;;;1.85;1.75;;;30.60;1.40;;;39.25;26.26;95765.08;645962;215;31617;-72
2022/05/10 12:01:46;;;;;;;2.00;1.90;;;30.80;1.40;;;33.96;32.73;95770.07;618527;226;42575;-74
2022/05/10 12:04:37;;;;;;;6.22;2.00;;;28.70;1.40;;;39.57;25.25;95754.17;647283;212;31587;-74
2022/05/10 12:07:28;;;;;;;2.60;2.00;;;31.00;1.40;;;38.26;27.45;95757.50;645851;216;31606;-74
2022/05/10 12:10:31;;;;;;;1.95;1.85;;;31.00;1.40;;;37.50;28.52;95752.26;646839;216;31667;-74
2022/05/10 12:22:07;;;;;;;2.00;1.80;;;25.40;1.40;;;33.02;31.66;95751.95;645741;216;31610;-74
2022/05/10 12:24:49;;;;;;;2.08;1.98;;;28.00;1.40;;;32.76;29.30;95749.58;647281;216;31860;-73
2022/05/10 12:27:31;;;;;;;2.42;2.22;;;26.80;1.40;;;33.27;30.95;95744.38;646171;212;31562;-74
2022/05/10 12:30:16;;;;;;;2.72;2.35;;;27.30;1.40;;;34.98;29.00;95735.75;647634;212;31915;-74
2022/05/10 12:32:58;;;;;;;2.80;1.87;;;29.00;1.40;;;34.32;29.87;95734.89;646921;216;42302;-75
2022/05/10 12:36:01;;;;;;;1.85;1.75;;;28.60;1.40;;;33.47;30.54;95731.16;647515;216;32283;-74
2022/05/10 12:38:45;;;;;;;2.30;1.70;;;28.00;1.40;;;34.44;29.55;95725.62;645404;216;32011;-74
2022/05/10 12:41:35;;;;;;;3.85;2.10;;;28.40;1.40;;;35.58;29.36;95722.55;647509;212;31854;-75
2022/05/10 12:44:20;;;;;;;1.80;1.70;;;28.80;1.40;;;36.71;27.81;95721.66;646098;216;31614;-74
2022/05/10 12:47:23;;;;;;;2.60;2.10;;;29.70;1.40;;;36.87;28.05;95714.12;646499;212;31848;-75
2022/05/10 12:50:08;;;;;;;1.90;1.80;;;30.50;1.40;;;39.55;26.34;95706.62;646618;212;31594;-74
2022/05/10 12:52:52;;;;;;;1.90;1.80;;;30.80;1.40;;;36.32;27.85;95709.68;646710;216;31584;-74
2022/05/10 12:55:34;;;;;;;2.42;2.22;;;29.70;1.40;;;36.93;29.09;95706.94;647494;216;42165;-74
2022/05/10 12:58:16;;;;;;;2.30;1.70;;;29.90;1.40;;;39.10;25.48;95699.53;645795;216;32819;-74
2022/05/10 13:01:01;;;;;;;2.00;1.85;;;30.50;1.40;;;37.64;27.80;95701.20;630555;221;31790;-74
2022/05/10 13:03:46;;;;;;;1.73;1.62;;;30.10;1.40;;;36.65;27.86;95702.03;647313;216;31809;-74